sensor_id;sensor_type;location;lat;lon;timestamp;P1;durP1;ratioP1;P2;durP2;ratioP2
26219;SDS011;13955;55.574;37.474;2022-09-09T00:04:52;9.70;;;2.42;;
26219;SDS011;13955;55.574;37.474;2022-09-09T00:07:25;7.62;;;2.90;;
26219;SDS011;13955;55.574;37.474;2022-09-09T00:10:00;8.23;;;2.80;;
26219;SDS011;13955;55.574;37.474;2022-09-09T00:15:00;4.85;;;3.00;;
26219;SDS011;13955;55.574;37.474;2022-09-09T00:17:35;3.33;;;2.37;;
26219;SDS011;13955;55.574;37.474;2022-09-09T00:20:09;7.45;;;2.60;;
26219;SDS011;13955;55.574;37.474;2022-09-09T00:22:33;6.90;;;3.05;;
26219;SDS011;13955;55.574;37.474;2022-09-09T00:25:08;6.70;;;2.47;;
26219;SDS011;13955;55.574;37.474;2022-09-09T00:27:35;8.50;;;3.10;;
26219;SDS011;13955;55.574;37.474;2022-09-09T00:32:48;7.92;;;2.47;;
26219;SDS011;13955;55.574;37.474;2022-09-09T00:37:47;8.33;;;3.25;;
26219;SDS011;13955;55.574;37.474;2022-09-09T00:40:30;7.00;;;3.05;;
26219;SDS011;13955;55.574;37.474;2022-09-09T00:43:12;9.70;;;2.92;;
26219;SDS011;13955;55.574;37.474;2022-09-09T00:48:29;8.10;;;3.12;;
26219;SDS011;13955;55.574;37.474;2022-09-09T00:50:56;3.83;;;2.00;;
26219;SDS011;13955;55.574;37.474;2022-09-09T00:53:56;8.18;;;4.17;;
26219;SDS011;13955;55.574;37.474;2022-09-09T00:56:13;5.83;;;3.45;;
26219;SDS011;13955;55.574;37.474;2022-09-09T01:01:12;21.20;;;8.60;;
26219;SDS011;13955;55.574;37.474;2022-09-09T01:03:54;39.98;;;16.75;;
26219;SDS011;13955;55.574;37.474;2022-09-09T01:06:30;40.88;;;20.40;;
26219;SDS011;13955;55.574;37.474;2022-09-09T01:11:29;9.25;;;3.60;;
26219;SDS011;13955;55.574;37.474;2022-09-09T01:14:03;18.15;;;8.58;;
26219;SDS011;13955;55.574;37.474;2022-09-09T01:16:32;7.53;;;4.40;;
26219;SDS011;13955;55.574;37.474;2022-09-09T01:19:01;24.15;;;12.30;;
26219;SDS011;13955;55.574;37.474;2022-09-09T01:21:48;12.90;;;5.60;;
26219;SDS011;13955;55.574;37.474;2022-09-09T01:24:15;9.13;;;3.85;;
26219;SDS011;13955;55.574;37.474;2022-09-09T01:26:51;9.20;;;4.15;;
26219;SDS011;13955;55.574;37.474;2022-09-09T01:29:25;6.35;;;3.60;;
26219;SDS011;13955;55.574;37.474;2022-09-09T01:31:55;7.87;;;3.67;;
26219;SDS011;13955;55.574;37.474;2022-09-09T01:34:25;7.47;;;3.13;;
26219;SDS011;13955;55.574;37.474;2022-09-09T01:36:58;4.70;;;2.80;;
26219;SDS011;13955;55.574;37.474;2022-09-09T01:39:28;5.50;;;3.37;;
26219;SDS011;13955;55.574;37.474;2022-09-09T01:42:02;8.20;;;2.92;;
26219;SDS011;13955;55.574;37.474;2022-09-09T01:44:30;6.67;;;3.08;;
26219;SDS011;13955;55.574;37.474;2022-09-09T01:47:01;4.28;;;2.58;;
26219;SDS011;13955;55.574;37.474;2022-09-09T01:49:30;5.55;;;3.25;;
26219;SDS011;13955;55.574;37.474;2022-09-09T01:52:02;7.03;;;2.87;;
26219;SDS011;13955;55.574;37.474;2022-09-09T01:54:34;4.28;;;2.30;;
26219;SDS011;13955;55.574;37.474;2022-09-09T01:57:15;5.97;;;2.85;;
26219;SDS011;13955;55.574;37.474;2022-09-09T02:02:45;5.37;;;2.47;;
26219;SDS011;13955;55.574;37.474;2022-09-09T02:08:03;6.08;;;2.75;;
26219;SDS011;13955;55.574;37.474;2022-09-09T02:10:45;7.00;;;2.60;;
26219;SDS011;13955;55.574;37.474;2022-09-09T02:13:17;5.42;;;2.55;;
26219;SDS011;13955;55.574;37.474;2022-09-09T02:18:22;5.22;;;2.58;;
26219;SDS011;13955;55.574;37.474;2022-09-09T02:20:51;6.17;;;2.60;;
26219;SDS011;13955;55.574;37.474;2022-09-09T02:23:20;7.20;;;4.25;;
26219;SDS011;13955;55.574;37.474;2022-09-09T02:25:51;5.53;;;2.98;;
26219;SDS011;13955;55.574;37.474;2022-09-09T02:28:22;4.70;;;2.50;;
26219;SDS011;13955;55.574;37.474;2022-09-09T02:30:53;5.45;;;3.20;;
26219;SDS011;13955;55.574;37.474;2022-09-09T02:33:24;4.83;;;2.75;;
26219;SDS011;13955;55.574;37.474;2022-09-09T02:35:54;7.22;;;2.77;;
26219;SDS011;13955;55.574;37.474;2022-09-09T02:38:26;6.10;;;3.37;;
26219;SDS011;13955;55.574;37.474;2022-09-09T02:40:57;8.10;;;3.77;;
26219;SDS011;13955;55.574;37.474;2022-09-09T02:43:30;7.28;;;3.37;;
26219;SDS011;13955;55.574;37.474;2022-09-09T02:46:04;5.60;;;4.30;;
26219;SDS011;13955;55.574;37.474;2022-09-09T02:48:35;5.50;;;3.60;;
26219;SDS011;13955;55.574;37.474;2022-09-09T02:51:06;8.05;;;4.25;;
26219;SDS011;13955;55.574;37.474;2022-09-09T02:54:37;7.12;;;3.62;;
26219;SDS011;13955;55.574;37.474;2022-09-09T02:56:17;7.40;;;3.22;;
26219;SDS011;13955;55.574;37.474;2022-09-09T02:58:48;7.60;;;4.55;;
26219;SDS011;13955;55.574;37.474;2022-09-09T03:01:19;7.72;;;4.28;;
26219;SDS011;13955;55.574;37.474;2022-09-09T03:03:47;14.78;;;5.33;;
26219;SDS011;13955;55.574;37.474;2022-09-09T03:06:17;6.15;;;4.47;;
26219;SDS011;13955;55.574;37.474;2022-09-09T03:08:47;9.93;;;5.12;;
26219;SDS011;13955;55.574;37.474;2022-09-09T03:11:19;11.57;;;5.05;;
26219;SDS011;13955;55.574;37.474;2022-09-09T03:13:47;9.50;;;5.25;;
26219;SDS011;13955;55.574;37.474;2022-09-09T03:16:16;10.48;;;5.65;;
26219;SDS011;13955;55.574;37.474;2022-09-09T03:18:47;11.10;;;4.62;;
26219;SDS011;13955;55.574;37.474;2022-09-09T03:21:15;7.28;;;4.85;;
26219;SDS011;13955;55.574;37.474;2022-09-09T03:23:45;10.82;;;4.87;;
26219;SDS011;13955;55.574;37.474;2022-09-09T03:26:15;9.98;;;6.87;;
26219;SDS011;13955;55.574;37.474;2022-09-09T03:28:45;6.60;;;4.35;;
26219;SDS011;13955;55.574;37.474;2022-09-09T03:31:16;5.67;;;3.25;;
26219;SDS011;13955;55.574;37.474;2022-09-09T03:33:45;10.30;;;4.92;;
26219;SDS011;13955;55.574;37.474;2022-09-09T03:36:15;6.67;;;4.85;;
26219;SDS011;13955;55.574;37.474;2022-09-09T03:38:43;10.05;;;5.72;;
26219;SDS011;13955;55.574;37.474;2022-09-09T03:41:13;11.05;;;6.05;;
26219;SDS011;13955;55.574;37.474;2022-09-09T03:43:42;10.68;;;5.08;;
26219;SDS011;13955;55.574;37.474;2022-09-09T03:46:10;9.63;;;5.22;;
26219;SDS011;13955;55.574;37.474;2022-09-09T03:48:39;8.80;;;4.83;;
26219;SDS011;13955;55.574;37.474;2022-09-09T03:51:08;10.65;;;5.05;;
26219;SDS011;13955;55.574;37.474;2022-09-09T03:53:36;9.63;;;5.15;;
26219;SDS011;13955;55.574;37.474;2022-09-09T03:56:06;12.45;;;5.95;;
26219;SDS011;13955;55.574;37.474;2022-09-09T03:58:35;11.60;;;5.47;;
26219;SDS011;13955;55.574;37.474;2022-09-09T04:01:07;9.30;;;5.30;;
26219;SDS011;13955;55.574;37.474;2022-09-09T04:03:37;9.93;;;5.15;;
26219;SDS011;13955;55.574;37.474;2022-09-09T04:06:07;12.65;;;5.55;;
26219;SDS011;13955;55.574;37.474;2022-09-09T04:08:37;7.33;;;4.78;;
26219;SDS011;13955;55.574;37.474;2022-09-09T04:11:06;7.97;;;4.58;;
26219;SDS011;13955;55.574;37.474;2022-09-09T04:13:36;9.95;;;5.05;;
26219;SDS011;13955;55.574;37.474;2022-09-09T04:16:09;8.23;;;4.78;;
26219;SDS011;13955;55.574;37.474;2022-09-09T04:18:39;9.25;;;4.87;;
26219;SDS011;13955;55.574;37.474;2022-09-09T04:21:08;12.65;;;5.50;;
26219;SDS011;13955;55.574;37.474;2022-09-09T04:23:38;12.23;;;5.08;;
26219;SDS011;13955;55.574;37.474;2022-09-09T04:26:06;12.55;;;5.22;;
26219;SDS011;13955;55.574;37.474;2022-09-09T04:28:36;7.58;;;5.50;;
26219;SDS011;13955;55.574;37.474;2022-09-09T04:31:08;10.20;;;4.78;;
26219;SDS011;13955;55.574;37.474;2022-09-09T04:33:37;6.28;;;4.17;;
26219;SDS011;13955;55.574;37.474;2022-09-09T04:36:07;10.80;;;4.50;;
26219;SDS011;13955;55.574;37.474;2022-09-09T04:38:36;6.97;;;4.35;;
26219;SDS011;13955;55.574;37.474;2022-09-09T04:41:05;8.55;;;3.98;;
26219;SDS011;13955;55.574;37.474;2022-09-09T04:43:35;7.22;;;4.75;;
26219;SDS011;13955;55.574;37.474;2022-09-09T04:46:05;7.28;;;4.42;;
26219;SDS011;13955;55.574;37.474;2022-09-09T04:48:34;17.48;;;4.72;;
26219;SDS011;13955;55.574;37.474;2022-09-09T04:51:09;8.60;;;4.83;;
26219;SDS011;13955;55.574;37.474;2022-09-09T04:53:34;10.50;;;3.85;;
26219;SDS011;13955;55.574;37.474;2022-09-09T04:58:39;8.40;;;4.45;;
26219;SDS011;13955;55.574;37.474;2022-09-09T05:03:38;3.55;;;3.00;;
26219;SDS011;13955;55.574;37.474;2022-09-09T05:06:09;7.72;;;3.22;;
26219;SDS011;13955;55.574;37.474;2022-09-09T05:08:39;4.90;;;3.77;;
26219;SDS011;13955;55.574;37.474;2022-09-09T05:11:13;5.47;;;3.80;;
26219;SDS011;13955;55.574;37.474;2022-09-09T05:13:43;6.25;;;3.45;;
26219;SDS011;13955;55.574;37.474;2022-09-09T05:16:12;10.20;;;4.30;;
26219;SDS011;13955;55.574;37.474;2022-09-09T05:18:41;10.45;;;4.37;;
26219;SDS011;13955;55.574;37.474;2022-09-09T05:21:14;7.30;;;3.80;;
26219;SDS011;13955;55.574;37.474;2022-09-09T05:23:44;8.35;;;3.58;;
26219;SDS011;13955;55.574;37.474;2022-09-09T05:26:14;6.40;;;3.80;;
26219;SDS011;13955;55.574;37.474;2022-09-09T05:28:43;4.47;;;2.33;;
26219;SDS011;13955;55.574;37.474;2022-09-09T05:31:12;6.33;;;3.35;;
26219;SDS011;13955;55.574;37.474;2022-09-09T05:36:17;4.58;;;2.95;;
26219;SDS011;13955;55.574;37.474;2022-09-09T05:38:47;5.42;;;3.15;;
26219;SDS011;13955;55.574;37.474;2022-09-09T05:41:17;5.10;;;3.10;;
26219;SDS011;13955;55.574;37.474;2022-09-09T05:43:45;5.78;;;2.77;;
26219;SDS011;13955;55.574;37.474;2022-09-09T05:46:18;5.78;;;2.83;;
26219;SDS011;13955;55.574;37.474;2022-09-09T05:48:49;2.35;;;1.55;;
26219;SDS011;13955;55.574;37.474;2022-09-09T05:51:25;4.12;;;2.65;;
26219;SDS011;13955;55.574;37.474;2022-09-09T05:53:49;7.78;;;2.30;;
26219;SDS011;13955;55.574;37.474;2022-09-09T05:56:23;4.53;;;2.50;;
26219;SDS011;13955;55.574;37.474;2022-09-09T05:58:54;6.70;;;2.42;;
26219;SDS011;13955;55.574;37.474;2022-09-09T06:01:27;3.00;;;1.80;;
26219;SDS011;13955;55.574;37.474;2022-09-09T06:03:57;6.92;;;2.02;;
26219;SDS011;13955;55.574;37.474;2022-09-09T06:06:26;3.62;;;2.02;;
26219;SDS011;13955;55.574;37.474;2022-09-09T06:08:56;7.47;;;2.42;;
26219;SDS011;13955;55.574;37.474;2022-09-09T06:11:28;10.20;;;2.75;;
26219;SDS011;13955;55.574;37.474;2022-09-09T06:14:00;3.00;;;1.90;;
26219;SDS011;13955;55.574;37.474;2022-09-09T06:16:30;3.92;;;2.80;;
26219;SDS011;13955;55.574;37.474;2022-09-09T06:19:01;5.87;;;2.22;;
26219;SDS011;13955;55.574;37.474;2022-09-09T06:21:33;4.42;;;1.85;;
26219;SDS011;13955;55.574;37.474;2022-09-09T06:24:04;5.90;;;1.95;;
26219;SDS011;13955;55.574;37.474;2022-09-09T06:26:34;4.95;;;1.52;;
26219;SDS011;13955;55.574;37.474;2022-09-09T06:29:03;4.50;;;1.27;;
26219;SDS011;13955;55.574;37.474;2022-09-09T06:31:33;3.87;;;1.62;;
26219;SDS011;13955;55.574;37.474;2022-09-09T06:36:32;3.10;;;1.65;;
26219;SDS011;13955;55.574;37.474;2022-09-09T06:39:01;2.58;;;1.80;;
26219;SDS011;13955;55.574;37.474;2022-09-09T06:41:31;5.28;;;2.27;;
26219;SDS011;13955;55.574;37.474;2022-09-09T06:44:01;4.17;;;1.90;;
26219;SDS011;13955;55.574;37.474;2022-09-09T06:46:35;5.67;;;1.50;;
26219;SDS011;13955;55.574;37.474;2022-09-09T06:49:03;3.02;;;1.40;;
26219;SDS011;13955;55.574;37.474;2022-09-09T06:51:34;6.55;;;1.50;;
26219;SDS011;13955;55.574;37.474;2022-09-09T06:54:03;6.03;;;1.75;;
26219;SDS011;13955;55.574;37.474;2022-09-09T06:56:33;3.55;;;1.32;;
26219;SDS011;13955;55.574;37.474;2022-09-09T06:59:04;4.28;;;1.32;;
26219;SDS011;13955;55.574;37.474;2022-09-09T07:01:34;5.30;;;1.98;;
26219;SDS011;13955;55.574;37.474;2022-09-09T07:04:05;5.10;;;1.85;;
26219;SDS011;13955;55.574;37.474;2022-09-09T07:06:43;2.92;;;1.80;;
26219;SDS011;13955;55.574;37.474;2022-09-09T07:11:42;4.15;;;1.47;;
26219;SDS011;13955;55.574;37.474;2022-09-09T07:14:13;8.88;;;2.35;;
26219;SDS011;13955;55.574;37.474;2022-09-09T07:16:42;3.05;;;1.50;;
26219;SDS011;13955;55.574;37.474;2022-09-09T07:19:11;6.58;;;2.10;;
26219;SDS011;13955;55.574;37.474;2022-09-09T07:21:40;3.33;;;1.35;;
26219;SDS011;13955;55.574;37.474;2022-09-09T07:24:09;4.95;;;1.37;;
26219;SDS011;13955;55.574;37.474;2022-09-09T07:26:39;6.03;;;2.10;;
26219;SDS011;13955;55.574;37.474;2022-09-09T07:29:08;3.08;;;1.17;;
26219;SDS011;13955;55.574;37.474;2022-09-09T07:31:38;4.17;;;2.72;;
26219;SDS011;13955;55.574;37.474;2022-09-09T07:34:09;2.35;;;1.20;;
26219;SDS011;13955;55.574;37.474;2022-09-09T07:36:38;6.33;;;1.20;;
26219;SDS011;13955;55.574;37.474;2022-09-09T07:39:09;2.02;;;0.60;;
26219;SDS011;13955;55.574;37.474;2022-09-09T07:41:40;3.70;;;1.37;;
26219;SDS011;13955;55.574;37.474;2022-09-09T07:44:14;4.93;;;1.43;;
26219;SDS011;13955;55.574;37.474;2022-09-09T07:46:41;5.42;;;1.65;;
26219;SDS011;13955;55.574;37.474;2022-09-09T07:49:10;5.83;;;1.20;;
26219;SDS011;13955;55.574;37.474;2022-09-09T07:51:46;6.45;;;1.45;;
26219;SDS011;13955;55.574;37.474;2022-09-09T07:54:10;1.77;;;1.10;;
26219;SDS011;13955;55.574;37.474;2022-09-09T07:56:40;1.20;;;0.80;;
26219;SDS011;13955;55.574;37.474;2022-09-09T07:59:11;2.35;;;1.20;;
26219;SDS011;13955;55.574;37.474;2022-09-09T08:01:42;2.17;;;0.98;;
26219;SDS011;13955;55.574;37.474;2022-09-09T08:06:42;8.23;;;1.30;;
26219;SDS011;13955;55.574;37.474;2022-09-09T08:09:11;4.85;;;1.57;;
26219;SDS011;13955;55.574;37.474;2022-09-09T08:11:40;1.65;;;1.00;;
26219;SDS011;13955;55.574;37.474;2022-09-09T08:14:10;3.75;;;0.98;;
26219;SDS011;13955;55.574;37.474;2022-09-09T08:16:40;2.25;;;0.90;;
26219;SDS011;13955;55.574;37.474;2022-09-09T08:19:09;6.30;;;1.27;;
26219;SDS011;13955;55.574;37.474;2022-09-09T08:21:40;1.90;;;1.30;;
26219;SDS011;13955;55.574;37.474;2022-09-09T08:24:09;2.40;;;0.98;;
26219;SDS011;13955;55.574;37.474;2022-09-09T08:26:44;2.30;;;0.90;;
26219;SDS011;13955;55.574;37.474;2022-09-09T08:29:12;4.85;;;1.62;;
26219;SDS011;13955;55.574;37.474;2022-09-09T08:31:49;9.43;;;3.90;;
26219;SDS011;13955;55.574;37.474;2022-09-09T08:34:12;2.07;;;1.03;;
26219;SDS011;13955;55.574;37.474;2022-09-09T08:36:42;2.83;;;1.00;;
26219;SDS011;13955;55.574;37.474;2022-09-09T08:39:13;1.60;;;1.20;;
26219;SDS011;13955;55.574;37.474;2022-09-09T08:51:51;4.92;;;3.52;;
26219;SDS011;13955;55.574;37.474;2022-09-09T08:54:23;7.45;;;1.60;;
26219;SDS011;13955;55.574;37.474;2022-09-09T08:56:52;2.85;;;1.95;;
26219;SDS011;13955;55.574;37.474;2022-09-09T08:59:21;5.78;;;1.17;;
26219;SDS011;13955;55.574;37.474;2022-09-09T09:02:07;3.20;;;1.10;;
26219;SDS011;13955;55.574;37.474;2022-09-09T09:04:45;2.33;;;0.90;;
26219;SDS011;13955;55.574;37.474;2022-09-09T09:12:35;3.25;;;1.07;;
26219;SDS011;13955;55.574;37.474;2022-09-09T09:15:05;1.15;;;0.70;;
26219;SDS011;13955;55.574;37.474;2022-09-09T09:17:33;10.00;;;1.30;;
26219;SDS011;13955;55.574;37.474;2022-09-09T09:20:05;2.05;;;0.85;;
26219;SDS011;13955;55.574;37.474;2022-09-09T09:25:22;3.12;;;1.02;;
26219;SDS011;13955;55.574;37.474;2022-09-09T09:30:36;1.52;;;1.20;;
26219;SDS011;13955;55.574;37.474;2022-09-09T09:35:56;7.78;;;1.55;;
26219;SDS011;13955;55.574;37.474;2022-09-09T09:38:28;1.95;;;0.85;;
26219;SDS011;13955;55.574;37.474;2022-09-09T09:40:58;5.85;;;1.00;;
26219;SDS011;13955;55.574;37.474;2022-09-09T09:43:32;1.53;;;1.00;;
26219;SDS011;13955;55.574;37.474;2022-09-09T09:46:05;2.50;;;1.55;;
26219;SDS011;13955;55.574;37.474;2022-09-09T09:48:34;3.50;;;0.85;;
26219;SDS011;13955;55.574;37.474;2022-09-09T09:51:08;3.60;;;1.02;;
26219;SDS011;13955;55.574;37.474;2022-09-09T09:53:34;3.40;;;1.00;;
26219;SDS011;13955;55.574;37.474;2022-09-09T09:56:04;3.17;;;0.90;;
26219;SDS011;13955;55.574;37.474;2022-09-09T10:01:28;1.47;;;1.12;;
26219;SDS011;13955;55.574;37.474;2022-09-09T10:04:19;3.58;;;1.02;;
26219;SDS011;13955;55.574;37.474;2022-09-09T10:06:48;2.50;;;1.40;;
26219;SDS011;13955;55.574;37.474;2022-09-09T10:09:24;1.15;;;0.85;;
26219;SDS011;13955;55.574;37.474;2022-09-09T10:14:47;2.33;;;1.17;;
26219;SDS011;13955;55.574;37.474;2022-09-09T10:19:42;2.02;;;1.40;;
26219;SDS011;13955;55.574;37.474;2022-09-09T10:38:13;2.42;;;1.20;;
26219;SDS011;13955;55.574;37.474;2022-09-09T10:40:43;1.20;;;0.72;;
26219;SDS011;13955;55.574;37.474;2022-09-09T10:43:21;2.47;;;0.80;;
26219;SDS011;13955;55.574;37.474;2022-09-09T10:45:51;1.35;;;1.00;;
26219;SDS011;13955;55.574;37.474;2022-09-09T10:48:25;2.92;;;0.90;;
26219;SDS011;13955;55.574;37.474;2022-09-09T10:51:06;2.77;;;1.27;;
26219;SDS011;13955;55.574;37.474;2022-09-09T10:53:36;3.80;;;0.78;;
26219;SDS011;13955;55.574;37.474;2022-09-09T10:56:07;1.67;;;1.00;;
26219;SDS011;13955;55.574;37.474;2022-09-09T11:04:10;2.33;;;0.72;;
26219;SDS011;13955;55.574;37.474;2022-09-09T11:06:37;1.45;;;0.88;;
26219;SDS011;13955;55.574;37.474;2022-09-09T11:09:08;4.75;;;1.15;;
26219;SDS011;13955;55.574;37.474;2022-09-09T11:11:49;7.40;;;1.35;;
26219;SDS011;13955;55.574;37.474;2022-09-09T11:14:14;2.47;;;0.93;;
26219;SDS011;13955;55.574;37.474;2022-09-09T11:16:49;2.90;;;1.12;;
26219;SDS011;13955;55.574;37.474;2022-09-09T11:21:46;3.55;;;1.40;;
26219;SDS011;13955;55.574;37.474;2022-09-09T11:27:11;2.52;;;1.17;;
26219;SDS011;13955;55.574;37.474;2022-09-09T11:35:07;2.17;;;0.75;;
26219;SDS011;13955;55.574;37.474;2022-09-09T11:40:22;2.98;;;0.88;;
26219;SDS011;13955;55.574;37.474;2022-09-09T11:43:04;1.07;;;0.78;;
26219;SDS011;13955;55.574;37.474;2022-09-09T11:45:33;2.08;;;1.30;;
26219;SDS011;13955;55.574;37.474;2022-09-09T11:48:03;1.25;;;0.90;;
26219;SDS011;13955;55.574;37.474;2022-09-09T11:50:37;3.20;;;1.40;;
26219;SDS011;13955;55.574;37.474;2022-09-09T11:55:43;2.87;;;0.80;;
26219;SDS011;13955;55.574;37.474;2022-09-09T12:00:43;3.02;;;1.05;;
26219;SDS011;13955;55.574;37.474;2022-09-09T12:08:51;2.80;;;0.90;;
26219;SDS011;13955;55.574;37.474;2022-09-09T12:11:29;1.80;;;0.50;;
26219;SDS011;13955;55.574;37.474;2022-09-09T12:13:54;3.17;;;0.90;;
26219;SDS011;13955;55.574;37.474;2022-09-09T12:16:33;1.40;;;0.90;;
26219;SDS011;13955;55.574;37.474;2022-09-09T12:19:03;2.62;;;1.07;;
26219;SDS011;13955;55.574;37.474;2022-09-09T12:21:38;3.95;;;0.90;;
26219;SDS011;13955;55.574;37.474;2022-09-09T12:24:09;9.75;;;1.25;;
26219;SDS011;13955;55.574;37.474;2022-09-09T12:26:52;4.40;;;1.35;;
26219;SDS011;13955;55.574;37.474;2022-09-09T12:31:51;2.20;;;0.90;;
26219;SDS011;13955;55.574;37.474;2022-09-09T12:36:57;2.35;;;0.98;;
26219;SDS011;13955;55.574;37.474;2022-09-09T12:39:29;3.37;;;0.80;;
26219;SDS011;13955;55.574;37.474;2022-09-09T12:41:58;3.08;;;0.93;;
26219;SDS011;13955;55.574;37.474;2022-09-09T12:44:30;4.90;;;1.00;;
26219;SDS011;13955;55.574;37.474;2022-09-09T12:47:01;3.15;;;1.07;;
26219;SDS011;13955;55.574;37.474;2022-09-09T12:52:03;1.87;;;0.70;;
26219;SDS011;13955;55.574;37.474;2022-09-09T12:54:34;4.22;;;1.20;;
26219;SDS011;13955;55.574;37.474;2022-09-09T12:57:04;3.98;;;0.82;;
26219;SDS011;13955;55.574;37.474;2022-09-09T12:59:40;1.85;;;0.82;;
26219;SDS011;13955;55.574;37.474;2022-09-09T13:02:11;3.75;;;1.05;;
26219;SDS011;13955;55.574;37.474;2022-09-09T13:04:34;2.55;;;0.80;;
26219;SDS011;13955;55.574;37.474;2022-09-09T13:07:10;1.60;;;1.00;;
26219;SDS011;13955;55.574;37.474;2022-09-09T13:09:37;3.12;;;1.80;;
26219;SDS011;13955;55.574;37.474;2022-09-09T13:12:07;3.25;;;0.80;;
26219;SDS011;13955;55.574;37.474;2022-09-09T13:14:36;4.00;;;1.83;;
26219;SDS011;13955;55.574;37.474;2022-09-09T13:17:06;3.22;;;2.20;;
26219;SDS011;13955;55.574;37.474;2022-09-09T13:19:35;3.47;;;1.50;;
26219;SDS011;13955;55.574;37.474;2022-09-09T13:22:20;1.90;;;1.10;;
26219;SDS011;13955;55.574;37.474;2022-09-09T13:24:41;2.98;;;0.78;;
26219;SDS011;13955;55.574;37.474;2022-09-09T13:27:34;1.12;;;0.68;;
26219;SDS011;13955;55.574;37.474;2022-09-09T13:29:58;1.17;;;0.72;;
26219;SDS011;13955;55.574;37.474;2022-09-09T13:32:29;1.00;;;0.82;;
26219;SDS011;13955;55.574;37.474;2022-09-09T13:34:59;1.62;;;0.90;;
26219;SDS011;13955;55.574;37.474;2022-09-09T13:37:41;2.00;;;0.85;;
26219;SDS011;13955;55.574;37.474;2022-09-09T13:40:06;0.57;;;0.57;;
26219;SDS011;13955;55.574;37.474;2022-09-09T13:42:38;1.45;;;0.75;;
26219;SDS011;13955;55.574;37.474;2022-09-09T13:45:14;0.70;;;0.60;;
26219;SDS011;13955;55.574;37.474;2022-09-09T13:47:37;2.08;;;0.82;;
26219;SDS011;13955;55.574;37.474;2022-09-09T13:52:53;6.03;;;1.30;;
26219;SDS011;13955;55.574;37.474;2022-09-09T13:55:22;1.50;;;1.00;;
26219;SDS011;13955;55.574;37.474;2022-09-09T13:57:52;1.12;;;0.88;;
26219;SDS011;13955;55.574;37.474;2022-09-09T14:00:22;1.60;;;0.75;;
26219;SDS011;13955;55.574;37.474;2022-09-09T14:02:52;3.20;;;1.22;;
26219;SDS011;13955;55.574;37.474;2022-09-09T14:07:50;1.85;;;0.78;;
26219;SDS011;13955;55.574;37.474;2022-09-09T14:10:19;3.27;;;0.60;;
26219;SDS011;13955;55.574;37.474;2022-09-09T14:12:48;3.65;;;1.10;;
26219;SDS011;13955;55.574;37.474;2022-09-09T14:15:17;1.30;;;0.70;;
26219;SDS011;13955;55.574;37.474;2022-09-09T14:17:46;3.00;;;0.98;;
26219;SDS011;13955;55.574;37.474;2022-09-09T14:20:16;2.60;;;1.50;;
26219;SDS011;13955;55.574;37.474;2022-09-09T14:22:45;13.08;;;1.98;;
26219;SDS011;13955;55.574;37.474;2022-09-09T14:25:13;5.47;;;1.20;;
26219;SDS011;13955;55.574;37.474;2022-09-09T14:27:42;4.62;;;1.10;;
26219;SDS011;13955;55.574;37.474;2022-09-09T14:30:11;3.72;;;1.30;;
26219;SDS011;13955;55.574;37.474;2022-09-09T14:32:40;3.33;;;1.32;;
26219;SDS011;13955;55.574;37.474;2022-09-09T14:35:08;5.20;;;1.37;;
26219;SDS011;13955;55.574;37.474;2022-09-09T14:37:37;1.17;;;0.98;;
26219;SDS011;13955;55.574;37.474;2022-09-09T14:40:06;4.65;;;1.10;;
26219;SDS011;13955;55.574;37.474;2022-09-09T14:42:36;3.42;;;0.80;;
26219;SDS011;13955;55.574;37.474;2022-09-09T14:45:05;1.87;;;0.90;;
26219;SDS011;13955;55.574;37.474;2022-09-09T14:47:33;3.47;;;1.30;;
26219;SDS011;13955;55.574;37.474;2022-09-09T14:50:02;7.85;;;1.62;;
26219;SDS011;13955;55.574;37.474;2022-09-09T14:52:32;5.08;;;1.80;;
26219;SDS011;13955;55.574;37.474;2022-09-09T14:55:01;4.72;;;2.20;;
26219;SDS011;13955;55.574;37.474;2022-09-09T14:57:30;4.22;;;1.62;;
26219;SDS011;13955;55.574;37.474;2022-09-09T14:59:59;1.80;;;1.32;;
26219;SDS011;13955;55.574;37.474;2022-09-09T15:02:29;2.40;;;1.75;;
26219;SDS011;13955;55.574;37.474;2022-09-09T15:04:59;4.78;;;1.50;;
26219;SDS011;13955;55.574;37.474;2022-09-09T15:07:29;3.77;;;1.98;;
26219;SDS011;13955;55.574;37.474;2022-09-09T15:09:59;4.95;;;2.10;;
26219;SDS011;13955;55.574;37.474;2022-09-09T15:12:29;8.00;;;1.93;;
26219;SDS011;13955;55.574;37.474;2022-09-09T15:14:58;8.25;;;2.37;;
26219;SDS011;13955;55.574;37.474;2022-09-09T15:17:28;7.22;;;2.45;;
26219;SDS011;13955;55.574;37.474;2022-09-09T15:19:57;4.80;;;2.52;;
26219;SDS011;13955;55.574;37.474;2022-09-09T15:22:25;3.77;;;1.22;;
26219;SDS011;13955;55.574;37.474;2022-09-09T15:24:54;4.37;;;1.85;;
26219;SDS011;13955;55.574;37.474;2022-09-09T15:27:23;6.25;;;1.17;;
26219;SDS011;13955;55.574;37.474;2022-09-09T15:29:51;5.15;;;1.37;;
26219;SDS011;13955;55.574;37.474;2022-09-09T15:32:20;4.72;;;1.30;;
26219;SDS011;13955;55.574;37.474;2022-09-09T15:34:49;4.08;;;1.50;;
26219;SDS011;13955;55.574;37.474;2022-09-09T15:37:18;3.00;;;1.00;;
26219;SDS011;13955;55.574;37.474;2022-09-09T15:39:47;4.67;;;1.42;;
26219;SDS011;13955;55.574;37.474;2022-09-09T15:42:16;6.03;;;1.52;;
26219;SDS011;13955;55.574;37.474;2022-09-09T15:44:44;4.60;;;1.22;;
26219;SDS011;13955;55.574;37.474;2022-09-09T15:47:13;3.45;;;1.32;;
26219;SDS011;13955;55.574;37.474;2022-09-09T15:49:42;8.53;;;1.40;;
26219;SDS011;13955;55.574;37.474;2022-09-09T15:52:11;5.22;;;1.35;;
26219;SDS011;13955;55.574;37.474;2022-09-09T15:54:40;9.08;;;1.55;;
26219;SDS011;13955;55.574;37.474;2022-09-09T15:57:11;5.00;;;1.20;;
26219;SDS011;13955;55.574;37.474;2022-09-09T15:59:40;6.65;;;1.77;;
26219;SDS011;13955;55.574;37.474;2022-09-09T16:02:09;8.90;;;1.72;;
26219;SDS011;13955;55.574;37.474;2022-09-09T16:04:38;6.22;;;1.45;;
26219;SDS011;13955;55.574;37.474;2022-09-09T16:07:06;4.12;;;1.70;;
26219;SDS011;13955;55.574;37.474;2022-09-09T16:09:36;6.72;;;1.60;;
26219;SDS011;13955;55.574;37.474;2022-09-09T16:12:05;8.33;;;2.50;;
26219;SDS011;13955;55.574;37.474;2022-09-09T16:14:34;8.80;;;2.00;;
26219;SDS011;13955;55.574;37.474;2022-09-09T16:17:03;5.62;;;1.70;;
26219;SDS011;13955;55.574;37.474;2022-09-09T16:19:33;8.58;;;3.00;;
26219;SDS011;13955;55.574;37.474;2022-09-09T16:22:02;6.12;;;2.40;;
26219;SDS011;13955;55.574;37.474;2022-09-09T16:24:32;11.15;;;2.72;;
26219;SDS011;13955;55.574;37.474;2022-09-09T16:27:00;8.05;;;2.75;;
26219;SDS011;13955;55.574;37.474;2022-09-09T16:29:29;14.13;;;3.75;;
26219;SDS011;13955;55.574;37.474;2022-09-09T16:31:59;11.57;;;3.70;;
26219;SDS011;13955;55.574;37.474;2022-09-09T16:34:28;15.18;;;4.47;;
26219;SDS011;13955;55.574;37.474;2022-09-09T16:36:57;14.73;;;3.20;;
26219;SDS011;13955;55.574;37.474;2022-09-09T16:39:25;10.68;;;3.37;;
26219;SDS011;13955;55.574;37.474;2022-09-09T16:41:54;14.03;;;3.50;;
26219;SDS011;13955;55.574;37.474;2022-09-09T16:44:24;15.05;;;4.30;;
26219;SDS011;13955;55.574;37.474;2022-09-09T16:46:53;12.93;;;3.27;;
26219;SDS011;13955;55.574;37.474;2022-09-09T16:49:22;15.45;;;4.08;;
26219;SDS011;13955;55.574;37.474;2022-09-09T16:51:51;18.50;;;4.17;;
26219;SDS011;13955;55.574;37.474;2022-09-09T16:54:21;16.07;;;4.13;;
26219;SDS011;13955;55.574;37.474;2022-09-09T16:56:51;21.55;;;4.22;;
26219;SDS011;13955;55.574;37.474;2022-09-09T16:59:20;16.42;;;4.40;;
26219;SDS011;13955;55.574;37.474;2022-09-09T17:01:50;14.85;;;4.42;;
26219;SDS011;13955;55.574;37.474;2022-09-09T17:04:21;22.58;;;8.25;;
26219;SDS011;13955;55.574;37.474;2022-09-09T17:06:52;10.10;;;4.12;;